Airfield :
LOGIN :

Register | Disclaimer

   EN    FR    IT 

 










Legend :    VFR   Marginal VFR   IFR   Intensive IFR   Very Intensive IFR
Visi :
Ceiling :
>= 8 km
>= 3000ft
5 to 8 km
1000 to 3000 ft
1500m to 5 km
500 to 1000 ft
800 to 1500m
200 to 500 ft
< 800m
< 200 ft
Symbols :   Thunderstorms  Fog  Heavy snow  Heavy precipitations  Wind > 20 kt
SIGMETs :     Misc.  Thunderstorms  Icing  Turbulence  Mountain Waves  Volcanic Ashes







- Airport Elevation : 74 ft
- IATA code : EIN


EHEH - Eindhoven

CURRENT METAR :
  • 110655Z AUTO 08009KT 050V120 9999 SCT049 OVC054 01/M02 Q0982 BLU 08010KT CAVOK BECMG SCT015 BKN020

EXPIRED METARs :
  • 110625Z AUTO 09008KT 030V120 9999 FEW070 SCT081 OVC086 01/M02 Q0982 BLU 08010KT CAVOK BECMG SCT015 BKN020
  • 110555Z AUTO 09007KT 050V120 9999 OVC088 01/M02 Q0982 BLU 08010KT CAVOK BECMG SCT015 BKN020
  • 110538Z AUTO 07008KT 050V110 9999 BKN093 OVC100 01/M02 Q0982 BLU 08010KT CAVOK BECMG SCT015 BKN020
  • 110525Z AUTO 08008KT 050V110 9999 FEW080 BKN089 OVC095 01/M02 Q0982 BLU
  • 110455Z AUTO 08007KT 060V120 9999 FEW094 OVC100 01/M02 Q0983 BLU
  • 110425Z AUTO 07007KT 040V100 9999 OVC110 01/M01 Q0984 BLU

TAF COR TAF EHEH
Valid from the 11 at 06:00 until the 12 at 12:00 UTC


110607Z 1106/1212 08008KT 9999 BKN015
BECMG 1109/1111 06014G25KT 3500 -SNRA -SN FEW007 SCT012 BKN015
BECMG 1111/1114 2500 -SN SCT005 BKN007 BKN010
TEMPO 1111/1124 1200 SN SCT003 BKN005 OVC008
PROB40
TEMPO 1112/1124 0300 +SN SCT001 BKN003
BECMG 1119/1122 36008KT
BECMG 1202/1205 9999 NSW FEW030
BECMG 1204/1206 24008KT
No reported NOTAMs for that airfield.



MET'MAP, your aeronautical weather chart ! - Copyright ORBIFLY December 2007 - Disclaimer

ORBIFLY MET'MAP TEAM :

Programming & Development : Alexandra Zaïnal
Concept & Development : Baudouin d'Aumeries
Co-Development & Prog : Marc-Olivier Méhu
Technical & hardware support : Manuel Goepfert

Contact : metmap@orbifly.com




SOURCES & CREDITS :

   NOAA